Time;durP1;ratioP1;P1;durP2;ratioP2;P2;SDS_P1;SDS_P2;PMS_P1;PMS_P2;Temp;Humidity;BMP_temperature;BMP_pressure;BME280_temperature;BME280_humidity;BME280_pressure;Samples;Min_cycle;Max_cycle;Signal;HPM_P1;HPM_P2
2023/10/18 00:01:00;;;;;;;8.25;4.22;;;7.60;99.90;;;;;;5097814;28;20044;-72
2023/10/18 00:03:29;;;;;;;8.60;4.13;;;7.60;99.90;;;;;;5070101;28;20047;-72
2023/10/18 00:05:56;;;;;;;8.27;3.83;;;7.70;99.90;;;;;;5096848;28;20032;-70
2023/10/18 00:08:24;;;;;;;9.35;4.15;;;7.60;99.90;;;;;;5076529;28;20089;-70
2023/10/18 00:10:53;;;;;;;12.02;4.40;;;7.60;99.90;;;;;;5076975;28;20044;-71
2023/10/18 00:13:25;;;;;;;11.45;5.00;;;7.60;99.90;;;;;;5079170;28;20067;-70
2023/10/18 00:15:53;;;;;;;10.45;4.03;;;7.60;99.90;;;;;;5071003;28;20120;-71
2023/10/18 00:18:20;;;;;;;8.75;3.28;;;7.60;99.90;;;;;;5084155;28;20024;-72
2023/10/18 00:20:46;;;;;;;6.38;3.45;;;7.60;99.90;;;;;;5099759;28;20084;-71
2023/10/18 00:23:12;;;;;;;8.13;4.15;;;7.60;99.90;;;;;;5097051;28;20053;-70
2023/10/18 00:25:37;;;;;;;8.23;3.70;;;7.60;99.90;;;;;;5094157;28;20046;-71
2023/10/18 00:28:03;;;;;;;8.77;4.15;;;7.60;99.90;;;;;;5070436;28;20171;-71
2023/10/18 00:30:30;;;;;;;7.75;3.90;;;7.60;99.90;;;;;;5078110;28;20047;-71
2023/10/18 00:32:57;;;;;;;9.00;3.72;;;7.70;99.90;;;;;;5075370;28;20035;-71
2023/10/18 00:35:23;;;;;;;9.27;3.78;;;7.60;99.90;;;;;;5093379;28;20071;-70
2023/10/18 00:37:50;;;;;;;8.43;4.43;;;7.60;99.90;;;;;;5092930;28;20068;-70
2023/10/18 00:40:33;;;;;;;10.57;4.25;;;7.60;99.90;;;;;;5073804;28;20046;-70
2023/10/18 00:43:05;;;;;;;8.80;4.38;;;7.70;99.90;;;;;;5092937;28;20032;-70
2023/10/18 00:45:31;;;;;;;10.07;4.30;;;7.70;99.90;;;;;;5074823;28;20035;-70
2023/10/18 00:47:59;;;;;;;11.65;4.93;;;7.60;99.90;;;;;;5076360;28;20452;-70
2023/10/18 00:50:28;;;;;;;8.90;3.95;;;7.70;99.90;;;;;;5074368;28;20048;-70
2023/10/18 00:52:54;;;;;;;8.65;4.63;;;7.70;99.90;;;;;;5069821;28;20043;-70
2023/10/18 00:55:20;;;;;;;11.27;3.38;;;7.60;99.90;;;;;;5074328;28;20097;-70
2023/10/18 00:57:47;;;;;;;10.50;3.88;;;7.60;99.90;;;;;;5077907;28;20035;-71
2023/10/18 01:00:19;;;;;;;7.97;4.03;;;7.60;99.90;;;;;;5089283;28;20520;-71
2023/10/18 01:02:48;;;;;;;8.55;4.63;;;7.60;99.90;;;;;;5095848;28;20047;-70
2023/10/18 01:05:14;;;;;;;12.60;4.38;;;7.60;99.90;;;;;;5092505;28;20055;-71
2023/10/18 01:07:42;;;;;;;9.75;4.40;;;7.50;99.90;;;;;;5094643;28;20031;-72
2023/10/18 01:10:09;;;;;;;9.00;4.47;;;7.50;99.90;;;;;;5077148;28;20488;-72
2023/10/18 01:12:35;;;;;;;8.93;4.47;;;7.50;99.90;;;;;;5103451;28;20031;-72
2023/10/18 01:15:06;;;;;;;8.40;4.57;;;7.50;99.90;;;;;;5074457;28;20038;-71
2023/10/18 01:17:36;;;;;;;8.35;4.20;;;7.40;99.90;;;;;;5097042;28;20035;-71
2023/10/18 01:20:12;;;;;;;5.40;2.85;;;7.40;99.90;;;;;;5075894;28;20036;-72
2023/10/18 01:22:38;;;;;;;6.75;3.85;;;7.40;99.90;;;;;;5071651;28;20031;-71
2023/10/18 01:25:04;;;;;;;8.48;4.47;;;7.40;99.90;;;;;;5091784;28;20092;-71
2023/10/18 01:27:30;;;;;;;10.88;4.35;;;7.40;99.90;;;;;;5098532;28;20043;-71
2023/10/18 01:29:56;;;;;;;10.38;4.57;;;7.40;99.90;;;;;;5072858;28;20032;-71
2023/10/18 01:32:21;;;;;;;9.48;3.95;;;7.40;99.90;;;;;;5095149;28;20076;-71
2023/10/18 01:34:47;;;;;;;9.95;3.90;;;7.40;99.90;;;;;;5075483;28;20123;-71
2023/10/18 01:37:14;;;;;;;8.52;4.10;;;7.40;99.90;;;;;;5094505;28;20025;-71
2023/10/18 01:39:40;;;;;;;9.57;4.22;;;7.40;99.90;;;;;;5099154;28;20601;-71
2023/10/18 01:42:06;;;;;;;12.70;4.97;;;7.40;99.90;;;;;;5085857;28;20127;-70
2023/10/18 01:44:35;;;;;;;10.52;4.20;;;7.40;99.90;;;;;;5089404;28;20119;-70
2023/10/18 01:47:07;;;;;;;8.90;3.53;;;7.40;99.90;;;;;;5095468;28;20065;-70
2023/10/18 01:49:50;;;;;;;10.13;4.70;;;7.30;99.90;;;;;;5071333;28;20028;-70
2023/10/18 01:52:17;;;;;;;7.25;3.78;;;7.30;99.90;;;;;;5090945;28;20047;-70
2023/10/18 01:54:43;;;;;;;8.63;4.13;;;7.40;99.90;;;;;;5077083;28;20073;-71
2023/10/18 01:57:11;;;;;;;8.68;3.90;;;7.30;99.90;;;;;;5090761;28;20053;-71
2023/10/18 01:59:37;;;;;;;11.93;4.15;;;7.30;99.90;;;;;;5072132;28;20058;-71
2023/10/18 02:02:11;;;;;;;9.80;4.95;;;7.30;99.90;;;;;;5074932;28;20028;-70
2023/10/18 02:04:41;;;;;;;11.10;4.30;;;7.30;99.90;;;;;;5100347;28;20035;-71
2023/10/18 02:07:07;;;;;;;9.27;4.65;;;7.30;99.90;;;;;;5079338;28;20640;-71
2023/10/18 02:12:29;;;;;;;7.85;3.97;;;7.30;99.90;;;;;;5065147;28;20039;-71
2023/10/18 02:15:00;;;;;;;11.77;4.63;;;7.20;99.90;;;;;;5067899;28;20132;-71
2023/10/18 02:17:27;;;;;;;;;;;7.20;99.90;;;;;;5087994;28;20111;-70
2023/10/18 02:19:54;;;;;;;8.35;4.28;;;7.20;99.90;;;;;;5074693;28;19916;-70
2023/10/18 02:22:19;;;;;;;9.43;4.00;;;7.20;99.90;;;;;;5092818;28;20493;-70
2023/10/18 02:24:45;;;;;;;10.82;4.50;;;7.20;99.90;;;;;;5092559;28;20054;-70
2023/10/18 02:27:15;;;;;;;9.18;4.35;;;7.20;99.90;;;;;;5068037;28;20485;-71
2023/10/18 02:29:42;;;;;;;11.55;4.53;;;7.20;99.90;;;;;;5068054;28;20082;-71
2023/10/18 02:32:32;;;;;;;9.90;4.22;;;7.20;99.90;;;;;;5095200;28;20128;-72
2023/10/18 02:34:58;;;;;;;8.00;4.03;;;7.20;99.90;;;;;;5067947;28;20082;-70
2023/10/18 02:37:24;;;;;;;6.78;3.63;;;7.10;99.90;;;;;;5092467;28;20681;-71
2023/10/18 02:39:51;;;;;;;9.20;4.10;;;7.20;99.90;;;;;;5078060;28;20502;-70
2023/10/18 02:42:18;;;;;;;10.88;4.03;;;7.20;99.90;;;;;;5067719;28;20028;-70
2023/10/18 02:44:44;;;;;;;8.75;4.32;;;7.20;99.90;;;;;;5091404;28;20040;-71
2023/10/18 02:47:16;;;;;;;10.43;3.80;;;7.20;99.90;;;;;;5071650;28;20028;-71
2023/10/18 02:49:45;;;;;;;7.47;3.70;;;7.20;99.90;;;;;;5095122;28;20086;-71
2023/10/18 02:52:15;;;;;;;9.85;3.88;;;7.30;99.90;;;;;;5087391;28;20028;-71
2023/10/18 02:54:41;;;;;;;11.60;3.90;;;7.30;99.90;;;;;;5095887;28;20670;-70
2023/10/18 02:57:07;;;;;;;6.75;3.25;;;7.20;99.90;;;;;;5081006;28;20494;-71
2023/10/18 02:59:32;;;;;;;7.60;3.80;;;7.30;99.90;;;;;;5076433;28;20043;-71
2023/10/18 03:02:01;;;;;;;6.72;3.45;;;7.30;99.90;;;;;;5075040;28;20036;-70
2023/10/18 03:04:29;;;;;;;7.80;3.20;;;7.30;99.90;;;;;;5089022;28;20039;-69
2023/10/18 03:06:55;;;;;;;6.43;3.05;;;7.30;99.90;;;;;;5074891;28;20043;-71
2023/10/18 03:09:38;;;;;;;8.23;3.60;;;7.30;99.90;;;;;;5078835;28;20029;-70
2023/10/18 03:12:06;;;;;;;9.23;3.60;;;7.30;99.90;;;;;;5091128;28;20059;-72
2023/10/18 03:19:50;;;;;;;9.77;3.95;;;7.30;99.90;;;;;;5102270;28;20043;-70
2023/10/18 03:22:21;;;;;;;9.25;3.53;;;7.30;99.90;;;;;;5078403;28;20042;-70
2023/10/18 03:24:58;;;;;;;9.73;4.15;;;7.30;99.90;;;;;;5102259;28;20580;-70
2023/10/18 03:27:29;;;;;;;7.90;3.83;;;7.30;99.90;;;;;;5080888;28;20176;-70
2023/10/18 03:29:58;;;;;;;;;;;7.30;99.90;;;;;;5077203;28;20115;-71
2023/10/18 03:32:24;;;;;;;12.20;3.97;;;7.20;99.90;;;;;;5098291;28;19919;-70
2023/10/18 03:34:53;;;;;;;8.25;3.58;;;7.30;99.90;;;;;;5079092;28;20395;-69
2023/10/18 03:37:24;;;;;;;6.57;3.38;;;7.30;99.90;;;;;;5082339;28;20035;-71
2023/10/18 03:39:54;;;;;;;8.85;3.88;;;7.20;99.90;;;;;;5075541;28;20486;-69
2023/10/18 03:42:30;;;;;;;8.47;3.87;;;7.20;99.90;;;;;;5079276;28;20025;-71
2023/10/18 03:44:57;;;;;;;8.23;4.10;;;7.20;99.90;;;;;;5070129;28;20039;-70
2023/10/18 03:47:28;;;;;;;10.63;3.92;;;7.20;99.90;;;;;;5087613;28;20299;-69
2023/10/18 03:49:55;;;;;;;8.32;3.42;;;7.20;99.90;;;;;;5103943;28;20032;-70
2023/10/18 03:52:21;;;;;;;11.65;3.90;;;7.20;99.90;;;;;;5097401;28;20064;-71
2023/10/18 03:55:04;;;;;;;7.50;3.30;;;7.20;99.90;;;;;;5082239;28;20093;-71
2023/10/18 03:57:37;;;;;;;7.53;3.50;;;7.20;99.90;;;;;;5072162;28;20036;-71
2023/10/18 04:02:59;;;;;;;7.63;3.45;;;7.20;99.90;;;;;;5088139;28;20492;-71
2023/10/18 04:08:14;;;;;;;7.45;3.60;;;7.20;99.90;;;;;;5093345;28;20046;-71
2023/10/18 04:10:40;;;;;;;11.57;4.40;;;7.20;99.90;;;;;;5077239;28;20032;-71
2023/10/18 04:13:13;;;;;;;8.55;4.22;;;7.20;99.90;;;;;;5079523;28;20050;-71
2023/10/18 04:15:59;;;;;;;8.07;3.83;;;7.30;99.90;;;;;;5073789;28;20058;-70
2023/10/18 04:18:30;;;;;;;9.07;4.05;;;7.30;99.90;;;;;;5075579;28;20123;-70
2023/10/18 04:20:59;;;;;;;6.18;3.45;;;7.20;99.90;;;;;;5093841;28;20039;-70
2023/10/18 04:23:28;;;;;;;7.10;3.80;;;7.10;99.90;;;;;;5089397;28;20062;-71
2023/10/18 04:25:59;;;;;;;9.75;3.45;;;7.20;99.90;;;;;;5078388;28;20043;-70
2023/10/18 04:28:26;;;;;;;5.88;3.17;;;7.20;99.90;;;;;;5093484;28;20042;-69
2023/10/18 04:31:00;;;;;;;7.90;3.38;;;7.20;99.90;;;;;;5071899;28;20036;-70
2023/10/18 04:33:35;;;;;;;6.00;3.08;;;7.20;99.90;;;;;;5066004;28;20401;-70
2023/10/18 04:36:16;;;;;;;8.00;3.97;;;7.30;99.90;;;;;;5077696;28;20406;-70
2023/10/18 04:38:44;;;;;;;7.25;3.60;;;7.30;99.90;;;;;;5079894;28;20382;-70
2023/10/18 04:41:23;;;;;;;9.30;3.83;;;7.30;99.90;;;;;;5102175;28;20058;-69
2023/10/18 04:44:05;;;;;;;8.13;3.60;;;7.30;99.90;;;;;;5086864;28;20058;-70
2023/10/18 04:46:37;;;;;;;10.65;3.95;;;7.30;99.90;;;;;;5075366;28;20098;-71
2023/10/18 04:54:09;;;;;;;7.43;3.20;;;7.20;99.90;;;;;;5079388;28;20448;-71
2023/10/18 04:56:37;;;;;;;7.53;3.83;;;7.20;99.90;;;;;;5080241;28;20047;-71
2023/10/18 04:59:44;;;;;;;8.18;3.95;;;7.20;99.90;;;;;;5089741;28;20035;-70
2023/10/18 05:01:56;;;;;;;7.68;3.38;;;7.10;99.90;;;;;;5085681;28;20074;-70
2023/10/18 05:04:29;;;;;;;6.55;3.38;;;7.20;99.90;;;;;;5073135;28;20036;-70
2023/10/18 05:06:56;;;;;;;8.85;3.97;;;7.20;99.90;;;;;;5069491;28;20039;-70
2023/10/18 05:09:30;;;;;;;9.18;3.53;;;7.20;99.90;;;;;;5089006;28;20048;-71
2023/10/18 05:12:16;;;;;;;7.95;3.60;;;7.20;99.90;;;;;;5078008;28;20057;-70
2023/10/18 05:14:42;;;;;;;8.57;3.42;;;7.20;99.90;;;;;;5078804;28;20441;-71
2023/10/18 05:17:17;;;;;;;7.93;3.88;;;7.20;99.90;;;;;;5070889;28;20032;-71
2023/10/18 05:19:44;;;;;;;7.60;3.83;;;7.20;99.90;;;;;;5094855;28;20032;-71
2023/10/18 05:22:19;;;;;;;8.13;4.05;;;7.20;99.90;;;;;;5078913;28;20028;-70
2023/10/18 05:25:34;;;;;;;10.32;3.85;;;7.20;99.90;;;;;;5073947;28;20032;-70
2023/10/18 05:27:45;;;;;;;6.90;3.42;;;7.20;99.90;;;;;;5075741;28;20032;-72
2023/10/18 05:30:26;;;;;;;9.10;4.13;;;7.10;99.90;;;;;;5097637;28;20457;-71
2023/10/18 05:35:27;;;;;;;9.30;4.53;;;7.20;99.90;;;;;;5092600;28;20078;-70
2023/10/18 05:38:06;;;;;;;8.00;3.65;;;7.20;99.90;;;;;;5074218;28;20032;-70
2023/10/18 05:43:12;;;;;;;11.55;4.55;;;7.10;99.90;;;;;;5092036;28;20040;-70
2023/10/18 05:45:40;;;;;;;11.50;3.88;;;7.20;99.90;;;;;;5070552;28;20047;-70
2023/10/18 05:48:12;;;;;;;10.18;4.15;;;7.20;99.90;;;;;;5089078;28;20036;-70
2023/10/18 05:50:39;;;;;;;7.82;3.75;;;7.10;99.90;;;;;;5077862;28;20042;-71
2023/10/18 05:53:11;;;;;;;13.25;4.15;;;7.10;99.90;;;;;;5096234;28;20242;-71
2023/10/18 05:55:38;;;;;;;9.85;4.07;;;7.10;99.90;;;;;;5077529;28;20154;-71
2023/10/18 05:58:05;;;;;;;9.10;3.53;;;7.10;99.90;;;;;;5074906;28;20103;-75
2023/10/18 06:00:37;;;;;;;11.52;3.65;;;7.10;99.90;;;;;;5078269;28;20040;-70
2023/10/18 06:03:03;;;;;;;8.10;3.60;;;7.10;99.90;;;;;;5077515;28;20119;-70
2023/10/18 06:05:33;;;;;;;7.93;3.50;;;7.10;99.90;;;;;;5073638;28;20413;-71
2023/10/18 06:08:01;;;;;;;8.95;3.97;;;7.10;99.90;;;;;;5075184;28;20375;-70
2023/10/18 06:10:26;;;;;;;8.60;3.42;;;7.00;99.90;;;;;;5070887;28;20039;-71
2023/10/18 06:13:05;;;;;;;8.35;4.05;;;7.00;99.90;;;;;;5085713;28;20031;-70
2023/10/18 06:15:38;;;;;;;10.75;4.03;;;7.00;99.90;;;;;;5092261;28;20039;-70
2023/10/18 06:18:07;;;;;;;7.40;3.40;;;7.10;99.90;;;;;;5077964;28;20388;-70
2023/10/18 06:20:36;;;;;;;8.93;3.60;;;7.00;99.90;;;;;;5076892;28;20398;-70
2023/10/18 06:23:08;;;;;;;9.00;3.63;;;7.00;99.90;;;;;;5077093;28;20031;-71
2023/10/18 06:25:35;;;;;;;8.48;4.00;;;7.10;99.90;;;;;;5098886;28;20034;-71
2023/10/18 06:28:06;;;;;;;7.60;3.45;;;7.00;99.90;;;;;;5083377;28;20591;-71
2023/10/18 06:30:35;;;;;;;7.45;3.40;;;7.00;99.90;;;;;;5094541;28;20040;-70
2023/10/18 06:33:05;;;;;;;7.82;4.25;;;7.00;99.90;;;;;;5069085;28;20031;-70
2023/10/18 06:35:32;;;;;;;6.43;3.35;;;7.00;99.90;;;;;;5093145;28;20039;-70
2023/10/18 06:38:01;;;;;;;7.15;3.20;;;7.00;99.90;;;;;;5090051;28;20035;-70
2023/10/18 06:43:26;;;;;;;5.75;2.90;;;7.00;99.90;;;;;;5066064;28;20032;-70
2023/10/18 06:45:53;;;;;;;8.57;3.65;;;7.10;99.90;;;;;;5076198;28;20032;-70
2023/10/18 06:48:26;;;;;;;8.07;2.92;;;7.20;99.90;;;;;;5070560;28;20023;-70
2023/10/18 06:50:53;;;;;;;9.25;3.15;;;7.10;99.90;;;;;;5092972;28;20123;-70
2023/10/18 06:53:20;;;;;;;8.60;3.38;;;7.10;99.90;;;;;;5076102;28;20042;-71
2023/10/18 06:55:55;;;;;;;7.00;3.58;;;7.20;99.90;;;;;;5080462;28;20031;-70
2023/10/18 07:01:00;;;;;;;6.25;3.13;;;7.30;99.90;;;;;;5093793;28;20397;-70
2023/10/18 07:03:29;;;;;;;9.23;3.55;;;7.30;99.90;;;;;;5097097;28;20032;-70
2023/10/18 07:06:04;;;;;;;5.85;2.90;;;7.40;99.90;;;;;;5079686;28;20028;-70
2023/10/18 07:08:32;;;;;;;6.72;3.20;;;7.40;99.90;;;;;;5081116;28;20669;-71
2023/10/18 07:11:01;;;;;;;6.63;3.30;;;7.40;99.90;;;;;;5094198;28;20405;-70
2023/10/18 07:13:34;;;;;;;7.63;3.78;;;7.50;99.90;;;;;;5076190;28;20089;-71
2023/10/18 07:16:12;;;;;;;9.02;3.70;;;7.50;99.90;;;;;;5089242;28;20035;-70
2023/10/18 07:18:39;;;;;;;8.45;2.95;;;7.60;99.90;;;;;;5099246;28;20032;-71
2023/10/18 07:21:09;;;;;;;5.80;2.50;;;7.60;99.90;;;;;;5078093;28;20043;-72
2023/10/18 07:23:39;;;;;;;8.00;3.42;;;7.60;99.90;;;;;;5091547;28;20038;-71
2023/10/18 07:26:13;;;;;;;;;;;7.70;99.90;;;;;;5086113;28;20450;-72
2023/10/18 07:28:40;;;;;;;6.82;3.00;;;7.70;99.90;;;;;;5074445;28;19916;-70
2023/10/18 07:31:10;;;;;;;9.75;3.60;;;7.70;99.90;;;;;;5092456;28;20054;-71
2023/10/18 07:33:50;;;;;;;5.28;2.80;;;7.70;99.90;;;;;;5075738;28;20035;-71
2023/10/18 07:36:18;;;;;;;7.18;2.80;;;7.70;99.90;;;;;;5092693;28;20039;-71
2023/10/18 07:38:47;;;;;;;5.20;2.67;;;7.80;99.90;;;;;;5091025;28;20505;-70
2023/10/18 07:41:18;;;;;;;5.93;2.15;;;7.70;99.90;;;;;;5082987;28;20122;-70
2023/10/18 07:43:44;;;;;;;4.68;2.55;;;7.80;99.90;;;;;;5088948;28;20132;-71
2023/10/18 07:46:16;;;;;;;8.35;3.35;;;7.80;99.90;;;;;;5088396;28;20052;-71
2023/10/18 07:48:46;;;;;;;6.85;2.65;;;7.80;99.90;;;;;;5091156;28;20066;-73
2023/10/18 07:51:25;;;;;;;5.18;2.53;;;7.80;99.90;;;;;;5072986;28;20036;-71
2023/10/18 07:53:53;;;;;;;4.80;2.72;;;7.90;99.90;;;;;;5075906;28;20039;-71
2023/10/18 07:56:29;;;;;;;5.13;2.70;;;7.90;99.90;;;;;;5073244;28;20031;-71
2023/10/18 07:59:07;;;;;;;7.55;2.92;;;8.00;99.90;;;;;;5091628;28;20399;-71
2023/10/18 08:02:07;;;;;;;7.13;3.30;;;8.10;99.90;;;;;;5078880;28;20748;-70
2023/10/18 08:04:22;;;;;;;7.50;2.85;;;8.10;99.90;;;;;;5089612;28;20534;-70
2023/10/18 08:06:51;;;;;;;4.25;2.85;;;8.10;99.90;;;;;;5091763;28;20201;-70
2023/10/18 08:09:19;;;;;;;6.68;2.95;;;8.20;99.90;;;;;;5079425;28;20047;-70
2023/10/18 08:11:45;;;;;;;5.85;2.60;;;8.30;99.90;;;;;;5075211;28;20064;-70
2023/10/18 08:14:16;;;;;;;6.68;2.13;;;8.30;99.90;;;;;;5089919;28;20063;-70
2023/10/18 08:16:52;;;;;;;8.80;2.75;;;8.40;99.90;;;;;;5083605;28;20047;-71
2023/10/18 08:19:22;;;;;;;9.20;2.55;;;8.50;99.90;;;;;;5073502;28;20062;-71
2023/10/18 08:24:35;;;;;;;5.47;2.60;;;8.60;99.90;;;;;;5086133;28;20485;-71
2023/10/18 08:27:09;;;;;;;10.30;2.65;;;8.60;99.90;;;;;;5074057;28;20456;-71
2023/10/18 08:29:36;;;;;;;7.45;2.72;;;8.70;99.90;;;;;;5075647;28;20035;-72
2023/10/18 08:32:14;;;;;;;5.60;2.65;;;8.70;99.90;;;;;;5077783;28;20635;-70
2023/10/18 08:34:50;;;;;;;4.90;2.63;;;8.80;99.90;;;;;;5079013;28;20024;-70
2023/10/18 08:37:16;;;;;;;12.25;2.85;;;8.90;99.90;;;;;;5071302;28;20032;-71
2023/10/18 08:39:52;;;;;;;4.88;2.80;;;8.90;99.90;;;;;;5073957;28;20043;-72
2023/10/18 08:42:24;;;;;;;4.82;2.20;;;8.90;99.90;;;;;;5076808;28;20133;-72
2023/10/18 08:44:55;;;;;;;7.03;2.53;;;9.00;99.90;;;;;;5082328;28;20123;-71
2023/10/18 08:47:23;;;;;;;6.25;2.85;;;9.10;99.90;;;;;;5089028;28;20398;-71
2023/10/18 08:49:51;;;;;;;4.70;2.45;;;9.10;99.90;;;;;;5088163;28;20032;-70
2023/10/18 08:52:20;;;;;;;15.63;4.43;;;9.20;99.90;;;;;;5075625;28;20032;-71
2023/10/18 08:54:48;;;;;;;6.90;3.10;;;9.30;99.90;;;;;;5088047;28;20036;-71
2023/10/18 09:02:53;;;;;;;4.88;2.15;;;9.40;99.90;;;;;;5088690;28;20040;-70
2023/10/18 09:05:22;;;;;;;4.30;2.05;;;9.40;99.90;;;;;;5074094;28;20036;-71
2023/10/18 09:07:51;;;;;;;5.53;2.10;;;9.50;99.90;;;;;;5088253;28;20048;-72
2023/10/18 09:16:01;;;;;;;6.70;2.65;;;9.60;99.90;;;;;;5091775;28;20044;-72
2023/10/18 09:18:31;;;;;;;4.35;1.73;;;9.60;99.90;;;;;;5086998;28;20547;-71
2023/10/18 09:21:44;;;;;;;7.70;2.23;;;9.60;99.90;;;;;;5077644;28;20040;-71
2023/10/18 09:23:49;;;;;;;8.75;1.98;;;9.70;99.90;;;;;;5074176;28;20270;-71
2023/10/18 09:26:26;;;;;;;4.68;2.35;;;9.80;99.90;;;;;;5087651;28;20393;-71
2023/10/18 09:28:54;;;;;;;8.00;1.92;;;9.90;99.90;;;;;;5080038;28;20048;-72
2023/10/18 09:31:20;;;;;;;3.05;1.50;;;9.90;99.90;;;;;;5084234;28;20036;-72
2023/10/18 09:33:56;;;;;;;4.20;1.88;;;10.00;99.90;;;;;;5085597;28;20097;-72
2023/10/18 09:36:25;;;;;;;6.15;2.05;;;10.10;99.90;;;;;;5071579;28;20142;-72
2023/10/18 09:38:56;;;;;;;2.17;1.25;;;10.20;99.90;;;;;;5091478;28;20105;-71
2023/10/18 09:41:22;;;;;;;9.02;1.60;;;10.30;99.90;;;;;;5087880;28;20036;-72
2023/10/18 09:43:48;;;;;;;8.55;2.28;;;10.40;99.90;;;;;;5075395;28;20514;-72
2023/10/18 09:46:15;;;;;;;4.35;1.70;;;10.50;99.90;;;;;;5091504;28;20541;-71
2023/10/18 09:48:44;;;;;;;5.25;2.00;;;10.60;99.90;;;;;;5073873;28;20063;-71
2023/10/18 09:51:14;;;;;;;3.35;1.73;;;10.70;99.90;;;;;;5083516;28;20028;-72
2023/10/18 09:53:44;;;;;;;3.97;2.03;;;10.80;99.90;;;;;;5076156;28;20038;-71
2023/10/18 09:56:17;;;;;;;3.38;1.90;;;10.90;99.90;;;;;;5090930;28;20035;-70
2023/10/18 09:58:46;;;;;;;4.32;1.63;;;11.00;99.90;;;;;;5088730;28;20494;-71
2023/10/18 10:01:14;;;;;;;12.17;1.87;;;11.00;99.90;;;;;;5078520;28;20463;-72
2023/10/18 10:03:58;;;;;;;3.75;1.92;;;11.00;99.90;;;;;;5089362;28;20079;-72
2023/10/18 10:06:26;;;;;;;4.35;1.85;;;11.10;99.90;;;;;;5079381;28;20032;-72
2023/10/18 10:09:12;;;;;;;4.25;1.83;;;11.10;99.90;;;;;;5087155;28;20497;-71
2023/10/18 10:11:45;;;;;;;4.13;1.88;;;11.10;99.90;;;;;;5088631;28;20807;-74
2023/10/18 10:14:21;;;;;;;5.20;1.75;;;11.20;99.90;;;;;;5067569;28;20101;-72
2023/10/18 10:17:01;;;;;;;2.80;1.58;;;11.20;99.90;;;;;;5082563;28;20258;-71
2023/10/18 10:19:31;;;;;;;7.07;1.87;;;11.20;99.90;;;;;;5074928;28;20842;-71
2023/10/18 10:22:04;;;;;;;11.27;1.77;;;11.20;99.90;;;;;;5087154;28;20339;-71
2023/10/18 10:24:42;;;;;;;4.63;1.83;;;11.30;99.90;;;;;;5070096;28;20026;-70
2023/10/18 10:27:39;;;;;;;5.47;2.28;;;11.30;99.90;;;;;;5068316;28;20032;-70
2023/10/18 10:32:54;;;;;;;6.00;1.65;;;11.30;99.90;;;;;;5085651;28;20047;-72
2023/10/18 10:35:24;;;;;;;4.75;1.80;;;11.30;99.90;;;;;;5089934;28;20039;-70
2023/10/18 10:37:51;;;;;;;4.72;2.50;;;11.40;99.90;;;;;;5070339;28;20048;-71
2023/10/18 10:41:19;;;;;;;5.13;1.73;;;11.40;99.90;;;;;;5081122;28;20043;-70
2023/10/18 10:43:18;;;;;;;5.20;1.60;;;11.40;99.90;;;;;;5077246;28;20055;-71
2023/10/18 10:51:11;;;;;;;3.40;1.58;;;11.50;99.90;;;;;;5093582;28;20740;-71
2023/10/18 10:53:45;;;;;;;4.82;1.90;;;11.50;99.90;;;;;;5084703;28;20043;-71
2023/10/18 10:56:30;;;;;;;5.85;1.63;;;11.50;99.90;;;;;;5073069;28;20060;-70
2023/10/18 11:01:39;;;;;;;4.07;1.52;;;11.60;99.90;;;;;;5087111;28;20028;-70
2023/10/18 11:05:16;;;;;;;4.32;2.13;;;11.70;99.90;;;;;;5088507;28;20040;-74
2023/10/18 11:07:25;;;;;;;4.68;1.63;;;11.80;99.90;;;;;;5069802;28;20410;-70
2023/10/18 11:09:59;;;;;;;5.18;1.88;;;11.80;99.90;;;;;;5075871;28;20017;-71
2023/10/18 11:12:27;;;;;;;4.65;1.90;;;11.90;99.90;;;;;;5071906;28;20040;-71
2023/10/18 11:14:53;;;;;;;3.25;1.50;;;12.00;99.90;;;;;;5076369;28;20028;-71
2023/10/18 11:17:19;;;;;;;6.80;1.90;;;12.00;99.90;;;;;;5071244;28;20828;-71
2023/10/18 11:19:51;;;;;;;3.60;1.60;;;12.10;99.90;;;;;;5067407;28;20143;-71
2023/10/18 11:22:19;;;;;;;7.90;1.52;;;12.20;99.90;;;;;;5088536;28;20036;-70
2023/10/18 11:24:55;;;;;;;3.20;1.30;;;12.20;99.90;;;;;;5077301;28;20545;-71
2023/10/18 11:27:22;;;;;;;3.90;1.40;;;12.20;99.90;;;;;;5068886;28;20032;-71
2023/10/18 11:29:55;;;;;;;5.53;1.52;;;12.20;99.90;;;;;;5067519;28;20039;-71
2023/10/18 11:32:27;;;;;;;4.82;1.92;;;12.30;99.90;;;;;;5071127;28;20111;-72
2023/10/18 11:35:05;;;;;;;5.78;3.03;;;12.30;99.90;;;;;;5071726;28;20124;-71
2023/10/18 11:37:38;;;;;;;6.35;2.42;;;12.40;99.90;;;;;;5088898;28;20050;-73
2023/10/18 11:40:30;;;;;;;3.65;1.83;;;12.40;99.90;;;;;;5075180;28;20043;-70
2023/10/18 11:43:05;;;;;;;5.43;2.20;;;12.40;99.90;;;;;;5096069;28;20028;-70
2023/10/18 11:45:38;;;;;;;7.97;1.75;;;12.40;99.90;;;;;;5090775;28;20028;-70
2023/10/18 11:48:06;;;;;;;4.38;1.67;;;12.40;99.90;;;;;;5092008;28;20035;-70
2023/10/18 11:50:38;;;;;;;5.05;1.58;;;12.50;99.90;;;;;;5082834;28;20059;-70
2023/10/18 11:53:14;;;;;;;4.57;1.75;;;12.50;99.90;;;;;;5070942;28;20061;-70
2023/10/18 11:56:00;;;;;;;3.67;1.77;;;12.50;99.90;;;;;;5065989;28;20131;-71
2023/10/18 11:58:27;;;;;;;4.38;1.80;;;12.60;99.90;;;;;;5087673;28;20044;-71
2023/10/18 12:01:06;;;;;;;5.82;1.58;;;12.60;99.90;;;;;;5076691;28;20121;-72
2023/10/18 12:03:38;;;;;;;4.43;1.75;;;12.70;99.90;;;;;;5077283;28;20104;-73
2023/10/18 12:06:04;;;;;;;5.28;1.90;;;12.70;99.90;;;;;;5090178;28;20116;-71
2023/10/18 12:11:37;;;;;;;5.22;1.90;;;12.70;99.90;;;;;;5064983;28;20036;-70
2023/10/18 12:14:04;;;;;;;6.05;1.80;;;12.80;99.90;;;;;;5070869;28;20109;-70
2023/10/18 12:16:32;;;;;;;4.80;1.60;;;12.90;99.90;;;;;;5089292;28;20509;-71
2023/10/18 12:18:58;;;;;;;4.60;2.17;;;13.00;99.90;;;;;;5078010;28;20687;-71
2023/10/18 12:21:29;;;;;;;3.92;1.95;;;13.00;99.90;;;;;;5067869;28;20040;-71
2023/10/18 12:23:55;;;;;;;3.38;1.58;;;13.10;99.90;;;;;;5076144;28;20174;-71
2023/10/18 12:26:24;;;;;;;3.90;1.33;;;13.10;99.90;;;;;;5073890;28;20036;-71
2023/10/18 12:28:55;;;;;;;3.15;1.65;;;13.20;99.90;;;;;;5073743;28;20067;-72
2023/10/18 12:31:26;;;;;;;4.13;1.42;;;13.20;99.90;;;;;;5074946;28;20032;-71
2023/10/18 12:34:02;;;;;;;4.47;2.10;;;13.30;99.90;;;;;;5073660;28;20096;-71
2023/10/18 12:36:40;;;;;;;4.85;1.60;;;13.30;99.90;;;;;;5073396;28;20614;-71
2023/10/18 12:39:09;;;;;;;4.07;1.65;;;13.40;99.90;;;;;;5063994;28;20032;-72
2023/10/18 12:41:39;;;;;;;6.90;1.90;;;13.40;99.90;;;;;;5071250;28;20052;-70
2023/10/18 12:44:10;;;;;;;7.78;1.85;;;13.40;99.90;;;;;;5072188;28;20031;-74
2023/10/18 12:46:37;;;;;;;4.72;2.13;;;13.40;99.90;;;;;;5088217;28;20036;-72
2023/10/18 12:49:10;;;;;;;10.30;1.58;;;13.30;99.90;;;;;;5075902;28;20035;-70
2023/10/18 12:51:40;;;;;;;6.18;1.80;;;13.30;99.90;;;;;;5068964;28;20028;-69
2023/10/18 12:54:08;;;;;;;;;;;13.20;99.90;;;;;;5091204;28;20032;-70
2023/10/18 12:56:37;;;;;;;4.07;1.38;;;13.20;99.90;;;;;;5080365;28;19915;-73
2023/10/18 13:01:42;;;;;;;5.97;1.90;;;13.30;99.90;;;;;;5087287;28;20501;-71
2023/10/18 13:04:17;;;;;;;3.40;1.90;;;13.40;99.90;;;;;;5077930;28;20043;-73
2023/10/18 13:06:44;;;;;;;3.72;2.00;;;13.40;99.90;;;;;;5073505;28;20128;-72
2023/10/18 13:09:19;;;;;;;5.80;1.70;;;13.50;99.90;;;;;;5089813;28;20379;-71
2023/10/18 13:12:08;;;;;;;5.90;2.30;;;13.50;99.90;;;;;;5070876;28;20101;-71
2023/10/18 13:14:33;;;;;;;5.05;1.75;;;13.60;99.90;;;;;;5087738;28;20039;-71
2023/10/18 13:17:03;;;;;;;6.70;1.95;;;13.60;99.90;;;;;;5091147;28;20035;-70
2023/10/18 13:19:28;;;;;;;7.53;2.78;;;13.70;99.90;;;;;;5079491;28;20049;-70
2023/10/18 13:21:55;;;;;;;5.50;2.10;;;13.70;99.90;;;;;;5088766;28;20053;-71
2023/10/18 13:26:54;;;;;;;5.25;1.60;;;13.80;99.90;;;;;;4985204;28;21058;-73
2023/10/18 13:31:49;;;;;;;6.85;1.55;;;13.90;99.90;;;;;;4988041;28;20042;-73
2023/10/18 13:34:18;;;;;;;7.40;2.30;;;13.90;99.90;;;;;;4989615;28;20065;-73
2023/10/18 13:36:48;;;;;;;2.88;1.73;;;13.90;99.90;;;;;;4995618;28;20433;-72
2023/10/18 13:39:14;;;;;;;6.40;2.17;;;13.80;99.90;;;;;;4990994;28;20104;-72
2023/10/18 13:41:47;;;;;;;5.18;1.58;;;13.90;99.90;;;;;;4977258;28;20042;-74
2023/10/18 13:44:25;;;;;;;4.20;2.10;;;13.90;99.90;;;;;;4985273;28;20748;-72
2023/10/18 13:46:52;;;;;;;5.78;1.60;;;13.80;99.90;;;;;;4985069;28;20034;-73
2023/10/18 13:49:23;;;;;;;4.30;1.65;;;13.80;99.90;;;;;;4995538;28;20031;-73
2023/10/18 13:51:49;;;;;;;3.95;1.70;;;13.80;99.90;;;;;;4988828;28;20038;-73
2023/10/18 13:54:15;;;;;;;2.88;1.70;;;13.80;99.90;;;;;;4984305;28;20034;-73
2023/10/18 13:56:43;;;;;;;4.13;1.70;;;13.80;99.90;;;;;;4990835;28;20730;-72
2023/10/18 13:59:09;;;;;;;4.30;2.03;;;13.80;99.90;;;;;;4988185;28;20046;-72
2023/10/18 14:01:35;;;;;;;3.33;1.38;;;13.80;99.90;;;;;;4985817;28;20380;-72
2023/10/18 14:04:01;;;;;;;3.47;1.15;;;13.80;99.90;;;;;;4991016;28;20037;-72
2023/10/18 14:06:29;;;;;;;5.55;1.67;;;13.80;99.90;;;;;;4987999;28;20038;-73
2023/10/18 14:08:56;;;;;;;5.18;1.70;;;13.70;99.90;;;;;;4995762;28;20049;-73
2023/10/18 14:11:22;;;;;;;3.85;1.67;;;13.70;99.90;;;;;;4989018;28;20636;-73
2023/10/18 14:13:49;;;;;;;3.47;1.55;;;13.70;99.90;;;;;;4988068;28;20080;-72
2023/10/18 14:16:18;;;;;;;7.30;2.00;;;13.70;99.90;;;;;;4999612;28;20121;-73